createdAt,value
2022-09-28T00:00:02.404Z,157.3
2022-09-28T00:05:01.440Z,153.8
2022-09-28T00:10:01.363Z,145.8
2022-09-28T00:15:02.267Z,139.2
2022-09-28T00:20:06.293Z,129.9
2022-09-28T00:25:06.486Z,123.9
2022-09-28T00:30:01.311Z,118.2
2022-09-28T00:35:01.341Z,125.0
2022-09-28T00:40:06.371Z,122.6
2022-09-28T00:45:01.363Z,118.5
2022-09-28T00:50:06.587Z,115.3
2022-09-28T01:05:01.608Z,80.4
2022-09-28T01:10:01.501Z,79.2
2022-09-28T01:15:06.510Z,78.2
2022-09-28T01:20:01.826Z,90.7
2022-09-28T01:25:07.110Z,87.6
2022-09-28T01:30:01.432Z,86.7
2022-09-28T01:35:01.553Z,86.7
2022-09-28T01:55:01.084Z,90.4
2022-09-28T02:00:01.212Z,89.0
2022-09-28T02:05:01.023Z,102.5
2022-09-28T02:10:00.955Z,93.4
2022-09-28T02:15:01.624Z,87.4
2022-09-28T02:20:00.903Z,82.5
2022-09-28T02:25:01.381Z,77.9
2022-09-28T02:30:01.206Z,65.0
2022-09-28T02:35:01.049Z,64.5
2022-09-28T02:40:02.020Z,65.1
2022-09-28T02:45:05.957Z,65.4
2022-09-28T03:05:01.874Z,70.2
2022-09-28T03:10:06.705Z,75.8
2022-09-28T03:15:08.854Z,75.3
2022-09-28T03:20:03.110Z,74.5
2022-09-28T03:25:07.074Z,73.7
2022-09-28T03:30:01.628Z,74.6
2022-09-28T03:35:01.821Z,73.9
2022-09-28T03:40:01.718Z,74.4
2022-09-28T03:45:01.749Z,75.3
2022-09-28T03:50:06.611Z,78.2
2022-09-28T03:55:02.934Z,80.2
2022-09-28T04:00:06.681Z,89.4
2022-09-28T04:05:02.091Z,90.9
2022-09-28T04:10:01.604Z,91.2
2022-09-28T04:15:01.713Z,89.9
2022-09-28T04:20:05.070Z,89.1
2022-09-28T04:25:01.727Z,82.1
2022-09-28T04:30:01.668Z,78.0
2022-09-28T04:35:01.722Z,76.1
2022-09-28T04:40:01.697Z,74.8
2022-09-28T04:45:01.719Z,83.4
2022-09-28T04:50:05.198Z,79.2
2022-09-28T04:55:01.838Z,79.9
2022-09-28T05:00:01.670Z,80.4
2022-09-28T05:05:01.664Z,81.0
2022-09-28T05:10:01.720Z,72.0
2022-09-28T05:15:06.841Z,75.0
2022-09-28T05:20:01.686Z,77.2
2022-09-28T05:25:01.683Z,78.2
2022-09-28T05:35:01.824Z,75.7
2022-09-28T05:40:01.606Z,72.5
2022-09-28T05:45:02.591Z,69.1
2022-09-28T05:50:02.619Z,67.0
2022-09-28T05:55:02.031Z,67.6
2022-09-28T06:00:01.658Z,64.8
2022-09-28T06:05:02.053Z,64.0
2022-09-28T06:10:01.515Z,64.4
2022-09-28T06:15:01.661Z,64.2
2022-09-28T06:20:01.569Z,64.7
2022-09-28T06:25:01.705Z,64.4
2022-09-28T06:30:02.511Z,65.4
2022-09-28T06:35:01.725Z,65.4
2022-09-28T06:40:02.199Z,67.8
2022-09-28T06:45:01.752Z,70.4
2022-09-28T06:50:01.823Z,71.4
2022-09-28T06:55:01.631Z,71.2
2022-09-28T07:00:01.791Z,72.1
2022-09-28T07:05:01.652Z,70.2
2022-09-28T07:10:01.829Z,67.4
2022-09-28T07:15:01.731Z,68.4
2022-09-28T07:20:19.018Z,69.5
2022-09-28T07:25:02.015Z,76.7
2022-09-28T07:30:01.503Z,78.8
2022-09-28T07:45:01.900Z,80.0
2022-09-28T07:50:01.510Z,73.4
2022-09-28T07:55:07.570Z,73.6
2022-09-28T08:00:01.825Z,73.9
2022-09-28T08:05:02.664Z,75.5
2022-09-28T08:10:01.572Z,79.4
2022-09-28T08:15:01.716Z,80.6
2022-09-28T08:20:01.567Z,79.5
2022-09-28T08:25:01.566Z,79.1
2022-09-28T08:30:01.571Z,78.0
2022-09-28T08:35:06.664Z,75.0
2022-09-28T08:40:06.590Z,73.2
2022-09-28T08:50:01.506Z,72.1
2022-09-28T08:55:01.743Z,68.9
2022-09-28T09:05:01.704Z,66.0
2022-09-28T09:10:06.722Z,62.8
2022-09-28T09:20:01.570Z,61.0
2022-09-28T09:25:01.610Z,59.7
2022-09-28T09:30:01.619Z,58.2
2022-09-28T09:35:01.637Z,58.6
2022-09-28T09:55:06.274Z,49.8
2022-09-28T10:00:01.214Z,50.6
2022-09-28T10:05:01.913Z,56.3
2022-09-28T10:10:01.983Z,55.5
2022-09-28T10:15:01.078Z,54.7
2022-09-28T10:25:01.008Z,54.9
2022-09-28T10:30:00.838Z,52.1
2022-09-28T10:35:01.118Z,52.0
2022-09-28T10:55:03.675Z,48.2
2022-09-28T11:15:01.396Z,52.6
2022-09-28T11:20:02.099Z,54.1
2022-09-28T11:35:02.912Z,55.6
2022-09-28T11:40:01.420Z,56.5
2022-09-28T11:55:01.774Z,50.0
2022-09-28T12:00:01.611Z,55.2
2022-09-28T12:05:02.686Z,53.8
2022-09-28T12:10:02.675Z,53.0
2022-09-28T12:15:01.817Z,52.7
2022-09-28T12:20:01.582Z,54.1
2022-09-28T12:35:01.199Z,52.2
2022-09-28T12:40:02.051Z,53.4
2022-09-28T12:55:01.727Z,49.0
2022-09-28T13:15:02.216Z,52.0
2022-09-28T13:35:02.079Z,56.4
2022-09-28T13:40:01.025Z,56.2
2022-09-28T13:45:01.193Z,54.2
2022-09-28T14:05:01.595Z,47.0
2022-09-28T14:10:01.448Z,48.4
2022-09-28T14:25:02.059Z,54.8
2022-09-28T14:45:07.164Z,48.0
2022-09-28T14:50:06.779Z,47.0
2022-09-28T14:55:01.168Z,48.1
2022-09-28T15:00:01.171Z,48.8
2022-09-28T15:05:07.592Z,49.4
2022-09-28T15:10:01.158Z,50.2
2022-09-28T15:15:01.303Z,52.0
2022-09-28T15:20:01.167Z,51.9
2022-09-28T15:25:03.253Z,53.5
2022-09-28T15:30:01.098Z,53.0
2022-09-28T15:45:02.621Z,54.2
2022-09-28T16:30:01.813Z,54.8
2022-09-28T16:45:02.042Z,61.6
2022-09-28T16:50:01.818Z,61.4
2022-09-28T16:55:29.200Z,61.1
2022-09-28T17:00:02.392Z,62.1
2022-09-28T17:25:02.065Z,66.7
2022-09-28T17:40:01.706Z,62.8
2022-09-28T17:50:01.766Z,63.2
2022-09-28T18:05:02.144Z,76.4
2022-09-28T18:10:01.763Z,80.4
2022-09-28T18:15:02.004Z,80.1
2022-09-28T18:20:01.798Z,82.2
2022-09-28T18:25:06.962Z,82.3
2022-09-28T18:30:01.730Z,72.7
2022-09-28T18:35:03.347Z,70.0
2022-09-28T18:40:01.958Z,71.6
2022-09-28T18:45:02.001Z,72.8
2022-09-28T18:50:01.722Z,84.1
2022-09-28T18:55:02.069Z,88.7
2022-09-28T19:00:01.740Z,92.5
2022-09-28T19:05:01.857Z,97.2
2022-09-28T19:10:01.935Z,98.8
2022-09-28T19:15:01.835Z,92.6
2022-09-28T19:20:01.651Z,94.4
2022-09-28T19:25:01.862Z,96.0
2022-09-28T19:30:01.989Z,95.0
2022-09-28T19:35:01.814Z,96.9
2022-09-28T19:40:01.771Z,96.0
2022-09-28T19:45:01.969Z,97.2
2022-09-28T19:50:01.782Z,97.7
2022-09-28T19:55:01.797Z,97.7
2022-09-28T20:00:06.989Z,97.5
2022-09-28T20:05:01.736Z,100.6
2022-09-28T20:10:03.868Z,101.3
2022-09-28T20:15:06.774Z,103.4
2022-09-28T20:20:01.724Z,102.9
2022-09-28T20:25:02.202Z,105.1
2022-09-28T20:30:01.947Z,102.1
2022-09-28T20:35:02.881Z,102.8
2022-09-28T20:40:01.731Z,102.5
2022-09-28T20:45:06.803Z,107.3
2022-09-28T20:50:01.780Z,106.4
2022-09-28T20:55:01.727Z,108.7
2022-09-28T21:00:01.727Z,108.8
2022-09-28T21:05:06.724Z,110.1
2022-09-28T21:10:01.623Z,109.8
2022-09-28T21:15:06.352Z,110.5
2022-09-28T21:20:01.655Z,111.6
2022-09-28T21:25:01.780Z,111.5
2022-09-28T21:30:01.586Z,112.0
2022-09-28T21:40:01.800Z,113.5
2022-09-28T21:45:02.042Z,115.3
2022-09-28T21:50:01.579Z,118.5
2022-09-28T21:55:01.707Z,119.2
2022-09-28T22:00:01.684Z,121.4
2022-09-28T22:05:06.758Z,123.6
2022-09-28T22:10:01.567Z,124.8
2022-09-28T22:15:02.650Z,123.0
2022-09-28T22:20:01.815Z,123.4
2022-09-28T22:25:02.073Z,123.0
2022-09-28T22:30:01.624Z,123.2
2022-09-28T22:35:02.700Z,123.8
2022-09-28T22:40:01.633Z,126.1
2022-09-28T22:45:01.736Z,127.4
2022-09-28T22:50:01.540Z,128.6
2022-09-28T22:55:06.687Z,129.8
2022-09-28T23:00:06.605Z,130.5
2022-09-28T23:05:01.729Z,129.3
2022-09-28T23:10:01.535Z,127.7
2022-09-28T23:15:06.752Z,125.6
2022-09-28T23:20:01.584Z,122.1
2022-09-28T23:25:01.740Z,122.8
2022-09-28T23:30:01.583Z,122.4
2022-09-28T23:35:01.732Z,121.8
2022-09-28T23:40:06.641Z,121.1
2022-09-28T23:45:01.641Z,121.0
2022-09-28T23:50:01.568Z,116.4
2022-09-28T23:55:01.657Z,115.2
